createdAt,value
2018-10-06T00:00:11.829Z,7.10
2018-10-06T00:01:11.854Z,6.30
2018-10-06T00:02:11.811Z,6.90
2018-10-06T00:03:11.798Z,7.00
2018-10-06T00:04:11.821Z,7.30
2018-10-06T00:05:11.786Z,6.90
2018-10-06T00:06:11.789Z,7.20
2018-10-06T00:07:11.756Z,6.20
2018-10-06T00:08:11.743Z,6.50
2018-10-06T00:09:11.739Z,6.90
2018-10-06T00:10:11.716Z,6.80
2018-10-06T00:11:11.728Z,6.70
2018-10-06T00:12:11.705Z,7.10
2018-10-06T00:13:11.684Z,6.40
2018-10-06T00:14:11.674Z,6.40
2018-10-06T00:15:11.680Z,7.10
2018-10-06T00:16:11.679Z,7.00
2018-10-06T00:17:11.639Z,7.00
2018-10-06T00:18:11.629Z,6.40
2018-10-06T00:19:11.625Z,7.00
2018-10-06T00:20:11.609Z,7.80
2018-10-06T00:21:11.621Z,6.70
2018-10-06T00:22:11.585Z,6.80
2018-10-06T00:23:11.575Z,7.10
2018-10-06T00:24:11.558Z,7.30
2018-10-06T00:25:11.584Z,7.30
2018-10-06T00:26:11.580Z,7.00
2018-10-06T00:27:11.567Z,7.70
2018-10-06T00:28:11.517Z,7.40
2018-10-06T00:29:11.506Z,7.50
2018-10-06T00:30:11.547Z,7.50
2018-10-06T00:31:11.520Z,7.30
2018-10-06T00:32:11.474Z,7.90
2018-10-06T00:33:11.490Z,7.80
2018-10-06T00:34:11.445Z,7.70
2018-10-06T00:35:11.464Z,6.90
2018-10-06T00:36:11.450Z,7.20
2018-10-06T00:37:11.414Z,7.50
2018-10-06T00:38:11.441Z,7.80
2018-10-06T00:39:11.391Z,7.10
2018-10-06T00:40:11.379Z,7.90
2018-10-06T00:41:11.392Z,7.30
2018-10-06T00:42:11.396Z,6.90
2018-10-06T00:43:11.348Z,7.20
2018-10-06T00:44:11.335Z,7.50
2018-10-06T00:45:11.319Z,7.40
2018-10-06T00:46:11.333Z,7.30
2018-10-06T00:47:11.342Z,7.70
2018-10-06T00:48:11.288Z,7.50
2018-10-06T00:49:11.302Z,7.10
2018-10-06T00:50:11.268Z,7.30
2018-10-06T00:51:11.256Z,7.60
2018-10-06T00:52:11.266Z,7.40
2018-10-06T00:53:11.233Z,7.40
2018-10-06T00:54:11.221Z,7.00
2018-10-06T00:55:11.214Z,8.10
2018-10-06T00:56:11.219Z,7.60
2018-10-06T00:57:11.183Z,7.50
2018-10-06T00:58:11.215Z,7.40
2018-10-06T00:59:11.163Z,6.80
2018-10-06T01:00:11.152Z,7.50
2018-10-06T01:01:11.147Z,7.50
2018-10-06T01:02:11.157Z,7.80
2018-10-06T01:03:11.115Z,8.00
2018-10-06T01:04:11.106Z,7.00
2018-10-06T01:05:11.111Z,7.90
2018-10-06T01:06:11.087Z,7.60
2018-10-06T01:07:11.096Z,7.20
2018-10-06T01:08:11.070Z,7.60
2018-10-06T01:09:11.057Z,7.70
2018-10-06T01:10:11.036Z,7.20
2018-10-06T01:11:11.037Z,7.60
2018-10-06T01:12:11.042Z,7.20
2018-10-06T01:13:11.008Z,7.00
2018-10-06T01:14:11.012Z,8.30
2018-10-06T01:15:10.987Z,6.90
2018-10-06T01:16:10.978Z,8.10
2018-10-06T01:17:10.980Z,6.60
2018-10-06T01:18:10.947Z,8.50
2018-10-06T01:19:10.940Z,7.60
2018-10-06T01:20:10.926Z,8.00
2018-10-06T01:21:10.928Z,7.80
2018-10-06T01:22:10.927Z,7.30
2018-10-06T01:23:10.895Z,7.80
2018-10-06T01:24:10.930Z,6.90
2018-10-06T01:25:10.873Z,6.70
2018-10-06T01:26:10.855Z,7.50
2018-10-06T01:27:10.869Z,7.50
2018-10-06T01:28:10.840Z,7.40
2018-10-06T01:29:10.825Z,7.20
2018-10-06T01:30:10.841Z,8.30
2018-10-06T01:31:10.807Z,7.20
2018-10-06T01:32:10.817Z,7.40
2018-10-06T01:33:10.775Z,7.80
2018-10-06T01:34:10.770Z,7.90
2018-10-06T01:35:10.756Z,7.80
2018-10-06T01:36:10.741Z,7.50
2018-10-06T01:37:10.766Z,7.50
2018-10-06T01:38:10.730Z,7.90
2018-10-06T01:39:10.712Z,8.10
2018-10-06T01:40:10.732Z,7.20
2018-10-06T01:41:10.688Z,7.90
2018-10-06T01:42:10.678Z,8.00
2018-10-06T01:43:10.695Z,7.50
2018-10-06T01:44:10.655Z,7.40
2018-10-06T01:45:10.640Z,7.70
2018-10-06T01:46:10.648Z,7.50
2018-10-06T01:47:10.619Z,8.10
2018-10-06T01:48:10.638Z,8.30
2018-10-06T01:49:10.606Z,7.80
2018-10-06T01:50:10.584Z,7.00
2018-10-06T01:51:10.617Z,8.10
2018-10-06T01:52:10.582Z,7.60
2018-10-06T01:53:10.581Z,7.30
2018-10-06T01:54:10.539Z,7.70
2018-10-06T01:55:10.529Z,7.80
2018-10-06T01:56:10.522Z,8.00
2018-10-06T01:57:10.508Z,7.90
2018-10-06T01:58:10.551Z,7.60
2018-10-06T01:59:10.488Z,7.60
2018-10-06T02:00:10.478Z,7.50
2018-10-06T02:01:10.459Z,7.50
2018-10-06T02:02:10.448Z,7.90
2018-10-06T02:03:10.487Z,7.40
2018-10-06T02:04:10.430Z,7.30
2018-10-06T02:05:10.415Z,7.60
2018-10-06T02:06:10.415Z,7.40
2018-10-06T02:07:10.396Z,8.20
2018-10-06T02:08:10.404Z,7.50
2018-10-06T02:09:10.372Z,7.80
2018-10-06T02:10:10.394Z,7.90
2018-10-06T02:11:10.351Z,8.10
2018-10-06T02:12:10.336Z,7.50
2018-10-06T02:13:10.347Z,8.30
2018-10-06T02:14:10.312Z,7.60
2018-10-06T02:15:10.305Z,7.80
2018-10-06T02:16:10.309Z,7.90
2018-10-06T02:17:10.281Z,8.30
2018-10-06T02:18:10.294Z,7.50
2018-10-06T02:19:10.256Z,8.10
2018-10-06T02:20:10.256Z,7.70
2018-10-06T02:21:10.241Z,7.70
2018-10-06T02:22:10.221Z,7.30
2018-10-06T02:23:10.257Z,7.10
2018-10-06T02:24:10.223Z,7.40
2018-10-06T02:25:10.193Z,7.30
2018-10-06T02:26:10.175Z,8.70
2018-10-06T02:27:10.163Z,7.20
2018-10-06T02:28:10.183Z,7.60
2018-10-06T02:29:10.144Z,8.00
2018-10-06T02:30:10.242Z,7.70
2018-10-06T02:31:10.151Z,7.60
2018-10-06T02:32:10.113Z,7.80
2018-10-06T02:33:10.130Z,7.50
2018-10-06T02:34:10.089Z,7.50
2018-10-06T02:35:10.077Z,7.50
2018-10-06T02:36:10.067Z,7.50
2018-10-06T02:37:10.052Z,6.90
2018-10-06T02:38:10.064Z,7.40
2018-10-06T02:39:10.033Z,7.50
2018-10-06T02:40:10.044Z,7.70
2018-10-06T02:41:10.008Z,7.40
2018-10-06T02:42:09.995Z,7.40
2018-10-06T02:43:10.009Z,7.50
2018-10-06T02:44:09.999Z,7.90
2018-10-06T02:45:09.961Z,7.90
2018-10-06T02:46:09.952Z,7.60
2018-10-06T02:47:09.943Z,7.70
2018-10-06T02:48:09.954Z,7.20
2018-10-06T02:49:09.920Z,8.00
2018-10-06T02:50:09.912Z,7.20
2018-10-06T02:51:09.928Z,7.50
2018-10-06T02:52:09.885Z,7.60
2018-10-06T02:53:09.877Z,7.30
2018-10-06T02:54:09.894Z,7.40
2018-10-06T02:55:09.847Z,6.90
2018-10-06T02:56:09.849Z,7.40
2018-10-06T02:57:09.827Z,6.90
2018-10-06T02:58:09.840Z,7.50
2018-10-06T02:59:09.830Z,7.30
2018-10-06T03:00:09.793Z,7.50
2018-10-06T03:01:09.784Z,7.80
2018-10-06T03:02:09.771Z,7.50
2018-10-06T03:03:09.818Z,7.80
2018-10-06T03:04:09.775Z,7.90
2018-10-06T03:05:09.740Z,7.00
2018-10-06T03:06:09.722Z,8.00
2018-10-06T03:07:09.716Z,8.10
2018-10-06T03:08:09.712Z,8.30
2018-10-06T03:09:09.713Z,8.00
2018-10-06T03:10:09.680Z,7.90
2018-10-06T03:11:09.720Z,7.50
2018-10-06T03:12:09.655Z,7.80
2018-10-06T03:13:09.647Z,7.70
2018-10-06T03:14:09.669Z,7.50
2018-10-06T03:15:09.627Z,7.80
2018-10-06T03:16:09.610Z,7.40
2018-10-06T03:17:09.601Z,8.50
2018-10-06T03:18:09.593Z,8.70
2018-10-06T03:19:09.612Z,7.90
2018-10-06T03:20:09.633Z,7.70
2018-10-06T03:21:09.559Z,7.90
2018-10-06T03:22:09.550Z,8.10
2018-10-06T03:23:09.530Z,7.10
2018-10-06T03:24:09.549Z,7.60
2018-10-06T03:25:09.563Z,7.80
2018-10-06T03:26:09.507Z,8.80
2018-10-06T03:27:09.485Z,8.50
2018-10-06T03:28:09.476Z,8.30
2018-10-06T03:29:09.489Z,7.90
2018-10-06T03:30:09.483Z,8.20
2018-10-06T03:31:09.447Z,7.10
2018-10-06T03:32:09.431Z,7.60
2018-10-06T03:33:09.427Z,7.60
2018-10-06T03:34:09.434Z,7.70
2018-10-06T03:35:09.404Z,8.30
2018-10-06T03:36:09.385Z,8.70
2018-10-06T03:37:09.371Z,7.50
2018-10-06T03:38:09.369Z,7.40
2018-10-06T03:39:09.377Z,7.40
2018-10-06T03:40:09.338Z,7.00
2018-10-06T03:41:09.365Z,7.70
2018-10-06T03:42:09.318Z,7.40
2018-10-06T03:43:09.308Z,7.20
2018-10-06T03:44:09.318Z,7.50
2018-10-06T03:45:09.282Z,8.20
2018-10-06T03:46:09.273Z,7.90
2018-10-06T03:47:09.269Z,7.50
2018-10-06T03:48:09.248Z,7.80
2018-10-06T03:49:09.307Z,7.60
2018-10-06T03:50:09.228Z,8.20
2018-10-06T03:51:09.223Z,7.20
2018-10-06T03:52:09.204Z,7.30
2018-10-06T03:53:09.197Z,7.70
2018-10-06T03:54:09.253Z,7.40
2018-10-06T03:55:09.179Z,7.50
2018-10-06T03:56:09.164Z,8.00
2018-10-06T03:57:09.147Z,7.80
2018-10-06T03:58:09.148Z,8.60
2018-10-06T03:59:09.148Z,7.90
2018-10-06T04:00:09.142Z,7.90
2018-10-06T04:01:09.100Z,8.40
2018-10-06T04:02:09.094Z,7.70
2018-10-06T04:03:09.078Z,8.10
2018-10-06T04:04:09.097Z,7.60
2018-10-06T04:05:09.057Z,7.70
2018-10-06T04:06:09.043Z,8.10
2018-10-06T04:07:09.034Z,8.30
2018-10-06T04:08:09.045Z,7.20
2018-10-06T04:09:09.040Z,7.80
2018-10-06T04:10:09.002Z,7.90
2018-10-06T04:11:08.988Z,7.90
2018-10-06T04:12:08.980Z,7.30
2018-10-06T04:13:08.966Z,8.00
2018-10-06T04:14:08.982Z,7.60
2018-10-06T04:15:08.949Z,7.50
2018-10-06T04:16:08.931Z,7.90
2018-10-06T04:17:08.923Z,7.30
2018-10-06T04:18:08.917Z,8.00
2018-10-06T04:19:08.925Z,8.00
2018-10-06T04:20:08.886Z,7.90
2018-10-06T04:21:08.888Z,8.30
2018-10-06T04:22:08.866Z,8.30
2018-10-06T04:23:08.861Z,8.30
2018-10-06T04:24:08.865Z,8.00
2018-10-06T04:25:08.847Z,8.10
2018-10-06T04:26:08.823Z,8.00
2018-10-06T04:27:08.824Z,8.10
2018-10-06T04:28:08.794Z,7.70
2018-10-06T04:29:08.816Z,8.70
2018-10-06T04:30:08.799Z,8.50
2018-10-06T04:31:08.762Z,8.30
2018-10-06T04:32:08.762Z,8.60
2018-10-06T04:33:08.743Z,8.00
2018-10-06T04:34:08.737Z,8.00
2018-10-06T04:35:08.740Z,8.30
2018-10-06T04:36:08.752Z,8.50
2018-10-06T04:37:08.699Z,8.00
2018-10-06T04:38:08.685Z,7.40
2018-10-06T04:39:08.673Z,7.80
2018-10-06T04:40:08.699Z,8.00
2018-10-06T04:41:08.649Z,9.10
2018-10-06T04:42:08.640Z,8.40
2018-10-06T04:43:08.629Z,7.10
2018-10-06T04:44:08.654Z,8.10
2018-10-06T04:45:08.634Z,8.10
2018-10-06T04:46:08.593Z,7.80
2018-10-06T04:47:08.584Z,7.60
2018-10-06T04:48:08.570Z,8.30
2018-10-06T04:49:08.563Z,7.20
2018-10-06T04:50:08.609Z,8.20
2018-10-06T04:51:08.536Z,7.80
2018-10-06T04:52:08.524Z,8.00
2018-10-06T04:53:08.583Z,8.20
2018-10-06T04:54:08.505Z,7.80
2018-10-06T04:55:08.517Z,8.70
2018-10-06T04:56:08.484Z,8.80
2018-10-06T04:57:08.475Z,8.50
2018-10-06T04:58:08.461Z,8.10
2018-10-06T04:59:08.457Z,8.80
2018-10-06T05:00:08.454Z,8.10
2018-10-06T05:01:08.435Z,9.10
2018-10-06T05:02:08.432Z,8.40
2018-10-06T05:03:08.409Z,8.30
2018-10-06T05:04:08.394Z,8.20
2018-10-06T05:05:08.402Z,9.00
2018-10-06T05:06:08.406Z,7.60
2018-10-06T05:07:08.363Z,8.70
2018-10-06T05:08:08.344Z,7.70
2018-10-06T05:09:08.333Z,7.60
2018-10-06T05:10:08.352Z,8.00
2018-10-06T05:11:08.309Z,8.80
2018-10-06T05:12:08.329Z,8.10
2018-10-06T05:13:08.286Z,7.80
2018-10-06T05:14:08.274Z,8.30
2018-10-06T05:15:08.289Z,8.80
2018-10-06T05:16:08.255Z,7.90
2018-10-06T05:17:08.242Z,8.30
2018-10-06T05:18:08.236Z,7.60
2018-10-06T05:19:08.269Z,8.20
2018-10-06T05:20:08.230Z,8.60
2018-10-06T05:21:08.196Z,7.90
2018-10-06T05:22:08.199Z,8.00
2018-10-06T05:23:08.181Z,8.40
2018-10-06T05:24:08.165Z,7.20
2018-10-06T05:25:08.181Z,7.80
2018-10-06T05:26:08.138Z,7.40
2018-10-06T05:27:08.131Z,8.00
2018-10-06T05:28:08.121Z,8.10
2018-10-06T05:29:08.104Z,8.00
2018-10-06T05:30:08.117Z,7.80
2018-10-06T05:31:08.112Z,7.80
2018-10-06T05:32:08.084Z,8.00
2018-10-06T05:33:08.090Z,8.20
2018-10-06T05:34:08.153Z,8.10
2018-10-06T05:35:08.073Z,7.70
2018-10-06T05:36:08.026Z,7.90
2018-10-06T05:37:08.073Z,8.20
2018-10-06T05:38:08.004Z,7.50
2018-10-06T05:39:07.993Z,7.90
2018-10-06T05:40:08.007Z,7.90
2018-10-06T05:41:07.980Z,8.20
2018-10-06T05:42:07.967Z,7.90
2018-10-06T05:43:07.950Z,8.90
2018-10-06T05:44:07.940Z,8.80
2018-10-06T05:45:08.004Z,8.60
2018-10-06T05:46:07.911Z,9.30
2018-10-06T05:47:07.908Z,9.00
2018-10-06T05:48:07.895Z,8.40
2018-10-06T05:49:07.881Z,8.70
2018-10-06T05:50:07.900Z,8.50
2018-10-06T05:51:07.864Z,9.00
2018-10-06T05:52:07.843Z,9.20
2018-10-06T05:53:07.833Z,9.20
2018-10-06T05:54:07.835Z,8.70
2018-10-06T05:55:07.835Z,8.20
2018-10-06T05:56:07.808Z,8.10
2018-10-06T05:57:07.792Z,8.60
2018-10-06T05:58:07.775Z,8.50
2018-10-06T05:59:07.830Z,9.10
2018-10-06T06:00:07.778Z,8.40
2018-10-06T06:01:07.759Z,8.80
2018-10-06T06:02:07.745Z,8.90
2018-10-06T06:03:07.726Z,8.80
2018-10-06T06:04:07.709Z,8.90
2018-10-06T06:05:07.708Z,8.90
2018-10-06T06:06:07.733Z,8.40
2018-10-06T06:07:07.676Z,9.00
2018-10-06T06:08:07.666Z,8.40
2018-10-06T06:09:07.682Z,9.10
2018-10-06T06:10:07.666Z,9.30
2018-10-06T06:11:07.629Z,10.20
2018-10-06T06:12:07.617Z,9.50
2018-10-06T06:13:07.607Z,9.60
2018-10-06T06:14:07.622Z,10.10
2018-10-06T06:15:07.588Z,9.70
2018-10-06T06:16:07.601Z,9.50
2018-10-06T06:17:07.562Z,9.90
2018-10-06T06:18:07.550Z,9.70
2018-10-06T06:19:07.541Z,10.30
2018-10-06T06:20:07.529Z,9.20
2018-10-06T06:21:07.540Z,9.70
2018-10-06T06:22:07.506Z,11.20
2018-10-06T06:23:07.499Z,9.80
2018-10-06T06:24:07.488Z,9.80
2018-10-06T06:25:07.472Z,9.20
2018-10-06T06:26:07.490Z,9.10
2018-10-06T06:27:07.456Z,8.50
2018-10-06T06:28:07.473Z,9.10
2018-10-06T06:29:07.431Z,9.50
2018-10-06T06:30:07.425Z,8.70
2018-10-06T06:31:07.437Z,8.70
2018-10-06T06:32:07.410Z,9.30
2018-10-06T06:33:07.378Z,9.30
2018-10-06T06:34:07.377Z,9.40
2018-10-06T06:35:07.369Z,9.60
2018-10-06T06:36:07.374Z,9.60
2018-10-06T06:37:07.344Z,8.60
2018-10-06T06:38:07.325Z,8.20
2018-10-06T06:39:07.317Z,7.90
2018-10-06T06:40:07.300Z,9.00
2018-10-06T06:41:07.344Z,8.50
2018-10-06T06:42:07.281Z,8.80
2018-10-06T06:43:07.269Z,8.70
2018-10-06T06:44:07.338Z,8.90
2018-10-06T06:45:07.264Z,9.00
2018-10-06T06:46:07.256Z,8.20
2018-10-06T06:47:07.225Z,8.30
2018-10-06T06:48:07.266Z,8.50
2018-10-06T06:49:07.206Z,8.00
2018-10-06T06:50:07.200Z,7.90
2018-10-06T06:51:07.199Z,7.90
2018-10-06T06:52:07.170Z,7.40
2018-10-06T06:53:07.156Z,7.60
2018-10-06T06:54:07.142Z,7.50
2018-10-06T06:55:07.175Z,7.50
2018-10-06T06:56:07.144Z,7.40
2018-10-06T06:57:07.108Z,7.90
2018-10-06T06:58:07.095Z,7.50
2018-10-06T06:59:07.086Z,8.10
2018-10-06T07:00:07.074Z,8.30
2018-10-06T07:01:07.114Z,8.20
2018-10-06T07:02:07.053Z,8.40
2018-10-06T07:03:07.051Z,8.60
2018-10-06T07:04:07.076Z,7.70
2018-10-06T07:05:07.020Z,8.50
2018-10-06T07:06:07.180Z,8.40
2018-10-06T07:07:06.995Z,8.10
2018-10-06T07:08:06.989Z,7.20
2018-10-06T07:09:07.009Z,7.50
2018-10-06T07:10:06.964Z,7.90
2018-10-06T07:11:06.972Z,8.10
2018-10-06T07:12:06.939Z,8.00
2018-10-06T07:13:06.928Z,7.70
2018-10-06T07:14:06.960Z,7.90
2018-10-06T07:15:06.906Z,8.00
2018-10-06T07:16:06.929Z,8.30
2018-10-06T07:17:06.882Z,8.60
2018-10-06T07:18:06.870Z,8.90
2018-10-06T07:19:06.860Z,7.90
2018-10-06T07:20:06.853Z,7.50
2018-10-06T07:21:06.860Z,8.70
2018-10-06T07:22:06.827Z,8.10
2018-10-06T07:23:06.830Z,9.20
2018-10-06T07:24:06.810Z,8.90
2018-10-06T07:25:06.798Z,8.30
2018-10-06T07:26:06.808Z,7.80
2018-10-06T07:27:06.777Z,9.00
2018-10-06T07:28:06.772Z,8.20
2018-10-06T07:29:06.749Z,7.60
2018-10-06T07:30:06.737Z,7.50
2018-10-06T07:31:06.756Z,7.70
2018-10-06T07:32:06.711Z,7.10
2018-10-06T07:33:06.702Z,8.20
2018-10-06T07:34:06.718Z,8.10
2018-10-06T07:35:06.678Z,8.50
2018-10-06T07:36:06.700Z,8.20
2018-10-06T07:37:06.660Z,8.00
2018-10-06T07:38:06.681Z,8.70
2018-10-06T07:39:06.640Z,7.90
2018-10-06T07:40:06.624Z,7.70
2018-10-06T07:41:06.638Z,7.60
2018-10-06T07:42:06.601Z,7.70
2018-10-06T07:43:06.588Z,7.20
2018-10-06T07:44:06.621Z,7.70
2018-10-06T07:45:06.567Z,7.20
2018-10-06T07:46:06.581Z,7.20
2018-10-06T07:47:06.545Z,8.10
2018-10-06T07:48:06.531Z,9.50
2018-10-06T07:49:06.521Z,9.60
2018-10-06T07:50:06.511Z,9.30
2018-10-06T07:51:06.535Z,8.90
2018-10-06T07:52:06.490Z,9.40
2018-10-06T07:53:06.511Z,8.50
2018-10-06T07:54:06.465Z,8.40
2018-10-06T07:55:06.459Z,7.80
2018-10-06T07:56:06.442Z,7.80
2018-10-06T07:57:06.453Z,7.90
2018-10-06T07:58:06.447Z,8.20
2018-10-06T07:59:06.462Z,7.80
2018-10-06T08:00:06.397Z,7.80
2018-10-06T08:01:06.412Z,7.00
2018-10-06T08:02:06.375Z,7.40
2018-10-06T08:03:06.363Z,6.60
2018-10-06T08:04:06.396Z,7.10
2018-10-06T08:05:06.339Z,7.10
2018-10-06T08:06:06.348Z,7.10
2018-10-06T08:07:06.341Z,6.50
2018-10-06T08:08:06.311Z,7.40
2018-10-06T08:09:06.293Z,7.30
2018-10-06T08:10:06.283Z,7.20
2018-10-06T08:11:06.275Z,6.80
2018-10-06T08:12:06.331Z,6.30
2018-10-06T08:13:06.249Z,6.20
2018-10-06T08:14:06.243Z,6.20
2018-10-06T08:15:06.224Z,5.90
2018-10-06T08:16:06.226Z,6.60
2018-10-06T08:17:06.236Z,6.30
2018-10-06T08:18:06.222Z,5.80
2018-10-06T08:19:06.181Z,6.20
2018-10-06T08:20:06.175Z,6.10
2018-10-06T08:21:06.191Z,5.80
2018-10-06T08:22:06.176Z,5.90
2018-10-06T08:23:06.134Z,6.00
2018-10-06T08:24:06.122Z,5.50
2018-10-06T08:25:06.116Z,5.70
2018-10-06T08:26:06.119Z,5.50
2018-10-06T08:27:06.118Z,6.00
2018-10-06T08:28:06.078Z,6.00
2018-10-06T08:29:06.068Z,5.20
2018-10-06T08:30:06.055Z,5.50
2018-10-06T08:31:06.048Z,5.30
2018-10-06T08:32:06.057Z,5.80
2018-10-06T08:33:06.021Z,6.00
2018-10-06T08:34:06.012Z,5.90
2018-10-06T08:35:06.001Z,5.30
2018-10-06T08:36:05.989Z,5.30
2018-10-06T08:37:06.001Z,5.40
2018-10-06T08:38:05.971Z,5.20
2018-10-06T08:39:05.953Z,5.30
2018-10-06T08:40:05.941Z,5.30
2018-10-06T08:41:05.933Z,4.80
2018-10-06T08:42:05.942Z,5.10
2018-10-06T08:43:05.908Z,4.90
2018-10-06T08:44:05.909Z,4.70
2018-10-06T08:45:05.886Z,4.70
2018-10-06T08:46:05.874Z,4.40
2018-10-06T08:47:05.885Z,4.90
2018-10-06T08:48:05.854Z,4.60
2018-10-06T08:49:05.840Z,5.00
2018-10-06T08:50:05.836Z,4.60
2018-10-06T08:51:05.819Z,4.60
2018-10-06T08:52:05.830Z,4.30
2018-10-06T08:53:05.798Z,4.20
2018-10-06T08:54:05.787Z,4.70
2018-10-06T08:55:05.783Z,4.40
2018-10-06T08:56:05.926Z,4.60
2018-10-06T08:57:05.775Z,4.70
2018-10-06T08:58:05.740Z,4.90
2018-10-06T08:59:05.728Z,4.60
2018-10-06T09:00:05.720Z,5.20
2018-10-06T09:01:05.708Z,4.50
2018-10-06T09:02:05.715Z,4.60
2018-10-06T09:03:05.690Z,4.60
2018-10-06T09:04:05.728Z,4.80
2018-10-06T09:05:05.666Z,4.50
2018-10-06T09:06:05.652Z,4.20
2018-10-06T09:07:05.660Z,4.40
2018-10-06T09:08:05.626Z,4.30
2018-10-06T09:09:05.615Z,4.30
2018-10-06T09:10:05.603Z,4.30
2018-10-06T09:11:05.676Z,4.50
2018-10-06T09:12:05.604Z,4.10
2018-10-06T09:13:05.575Z,4.10
2018-10-06T09:14:05.557Z,4.30
2018-10-06T09:15:05.548Z,4.00
2018-10-06T09:16:05.539Z,4.10
2018-10-06T09:17:05.552Z,3.90
2018-10-06T09:18:05.514Z,4.50
2018-10-06T09:19:05.502Z,4.10
2018-10-06T09:20:05.495Z,4.20
2018-10-06T09:21:05.479Z,4.50
2018-10-06T09:22:05.490Z,3.90
2018-10-06T09:23:05.459Z,4.20
2018-10-06T09:24:05.458Z,4.00
2018-10-06T09:25:05.435Z,4.20
2018-10-06T09:26:05.428Z,3.80
2018-10-06T09:27:05.432Z,4.00
2018-10-06T09:28:05.403Z,3.90
2018-10-06T09:29:05.388Z,4.60
2018-10-06T09:30:05.382Z,3.60
2018-10-06T09:31:05.364Z,4.40
2018-10-06T09:32:05.421Z,4.20
2018-10-06T09:33:05.346Z,4.10
2018-10-06T09:34:05.336Z,3.90
2018-10-06T09:35:05.321Z,4.00
2018-10-06T09:36:05.312Z,3.90
2018-10-06T09:37:05.321Z,4.00
2018-10-06T09:38:05.286Z,4.40
2018-10-06T09:39:05.275Z,4.10
2018-10-06T09:40:05.331Z,4.00
2018-10-06T09:41:05.254Z,4.00
2018-10-06T09:42:05.411Z,4.10
2018-10-06T09:43:05.238Z,3.70
2018-10-06T09:44:05.220Z,3.70
2018-10-06T09:45:05.207Z,3.90
2018-10-06T09:46:05.201Z,3.60
2018-10-06T09:47:05.189Z,3.60
2018-10-06T09:48:05.258Z,3.60
2018-10-06T09:49:05.162Z,3.80
2018-10-06T09:50:05.150Z,4.00
2018-10-06T09:51:05.139Z,3.50
2018-10-06T09:52:05.128Z,3.70
2018-10-06T09:53:05.138Z,3.70
2018-10-06T09:54:05.109Z,4.20
2018-10-06T09:55:05.093Z,3.70
2018-10-06T09:56:05.083Z,4.10
2018-10-06T09:57:05.074Z,4.80
2018-10-06T09:58:05.438Z,4.50
2018-10-06T09:59:05.048Z,3.20
2018-10-06T10:00:05.038Z,3.80
2018-10-06T10:01:05.027Z,4.00
2018-10-06T10:02:05.013Z,3.90
2018-10-06T10:03:05.028Z,3.70
2018-10-06T10:04:04.992Z,3.60
2018-10-06T10:05:04.981Z,3.60
2018-10-06T10:06:04.968Z,3.70
2018-10-06T10:07:04.985Z,3.60
2018-10-06T10:08:04.969Z,3.80
2018-10-06T10:09:04.940Z,3.50
2018-10-06T10:10:04.925Z,3.40
2018-10-06T10:11:04.912Z,3.40
2018-10-06T10:12:04.911Z,3.30
2018-10-06T10:13:04.913Z,3.40
2018-10-06T10:14:04.886Z,3.20
2018-10-06T10:15:04.877Z,3.40
2018-10-06T10:16:04.872Z,3.50
2018-10-06T10:17:04.861Z,3.60
2018-10-06T10:18:05.143Z,3.30
2018-10-06T10:19:04.829Z,3.30
2018-10-06T10:20:04.867Z,3.10
2018-10-06T10:21:04.808Z,3.00
2018-10-06T10:22:04.955Z,3.10
2018-10-06T10:23:04.844Z,3.10
2018-10-06T10:24:04.769Z,3.20
2018-10-06T10:25:04.769Z,3.60
2018-10-06T10:26:04.759Z,3.40
2018-10-06T10:27:04.748Z,3.20
2018-10-06T10:28:04.781Z,3.40
2018-10-06T10:29:04.711Z,3.40
2018-10-06T10:30:04.700Z,2.80
2018-10-06T10:31:04.690Z,3.20
2018-10-06T10:32:04.676Z,3.40
2018-10-06T10:33:04.690Z,3.40
2018-10-06T10:34:04.653Z,3.00
2018-10-06T10:35:04.648Z,3.10
2018-10-06T10:36:04.631Z,3.00
2018-10-06T10:37:04.621Z,3.00
2018-10-06T10:38:04.636Z,3.10
2018-10-06T10:39:04.640Z,3.30
2018-10-06T10:40:04.586Z,2.90
2018-10-06T10:41:04.575Z,4.80
2018-10-06T10:42:04.613Z,3.20
2018-10-06T10:43:06.021Z,3.30
2018-10-06T10:44:04.605Z,3.10
2018-10-06T10:45:04.538Z,4.30
2018-10-06T10:46:04.563Z,3.30
2018-10-06T10:47:04.517Z,3.30
2018-10-06T10:48:04.528Z,6.00
2018-10-06T10:49:04.486Z,7.20
2018-10-06T10:50:04.475Z,5.60
2018-10-06T10:51:04.465Z,5.00
2018-10-06T10:52:04.455Z,4.10
2018-10-06T10:53:04.462Z,3.60
2018-10-06T10:54:04.483Z,7.30
2018-10-06T10:55:04.417Z,4.60
2018-10-06T10:56:04.451Z,4.20
2018-10-06T10:57:04.407Z,3.50
2018-10-06T10:58:04.406Z,4.70
2018-10-06T10:59:04.384Z,4.70
2018-10-06T11:00:04.652Z,3.90
2018-10-06T11:01:04.354Z,4.10
2018-10-06T11:02:04.384Z,9.60
2018-10-06T11:03:04.351Z,4.80
2018-10-06T11:04:04.315Z,6.40
2018-10-06T11:05:04.305Z,7.80
2018-10-06T11:06:04.308Z,6.80
2018-10-06T11:07:04.282Z,4.20
2018-10-06T11:08:04.295Z,6.30
2018-10-06T11:09:04.412Z,13.20
2018-10-06T11:10:04.248Z,59.30
2018-10-06T11:11:04.243Z,18.90
2018-10-06T11:12:04.259Z,13.70
2018-10-06T11:13:04.237Z,6.70
2018-10-06T11:14:04.231Z,5.30
2018-10-06T11:15:04.215Z,4.80
2018-10-06T11:16:04.187Z,9.50
2018-10-06T11:17:04.228Z,5.20
2018-10-06T11:18:04.195Z,5.30
2018-10-06T11:19:04.149Z,6.00
2018-10-06T11:20:04.142Z,4.10
2018-10-06T11:21:04.125Z,5.40
2018-10-06T11:22:04.119Z,4.00
2018-10-06T11:23:04.105Z,3.70
2018-10-06T11:24:04.114Z,4.20
2018-10-06T11:25:04.084Z,3.50
2018-10-06T11:26:04.071Z,3.90
2018-10-06T11:27:04.060Z,3.70
2018-10-06T11:28:04.074Z,5.80
2018-10-06T11:29:04.057Z,4.50
2018-10-06T11:30:04.024Z,31.90
2018-10-06T11:31:04.020Z,14.70
2018-10-06T11:32:04.001Z,15.60
2018-10-06T11:33:03.994Z,8.00
2018-10-06T11:34:04.005Z,7.00
2018-10-06T11:35:03.968Z,5.60
2018-10-06T11:36:04.038Z,4.50
2018-10-06T11:37:03.965Z,4.00
2018-10-06T11:38:03.991Z,6.80
2018-10-06T11:39:03.957Z,6.10
2018-10-06T11:40:03.926Z,4.50
2018-10-06T11:41:03.901Z,4.40
2018-10-06T11:42:03.893Z,5.20
2018-10-06T11:43:03.886Z,5.00
2018-10-06T11:44:03.893Z,5.30
2018-10-06T11:45:03.862Z,9.40
2018-10-06T11:46:03.851Z,6.90
2018-10-06T11:47:03.833Z,7.50
2018-10-06T11:48:03.865Z,4.80
2018-10-06T11:49:03.838Z,9.00
2018-10-06T11:50:03.852Z,8.50
2018-10-06T11:51:03.789Z,9.80
2018-10-06T11:52:03.778Z,12.10
2018-10-06T11:53:03.812Z,22.80
2018-10-06T11:54:03.797Z,13.70
2018-10-06T11:55:03.753Z,19.00
2018-10-06T11:56:03.734Z,12.80
2018-10-06T11:57:03.758Z,19.20
2018-10-06T11:58:03.715Z,17.10
2018-10-06T11:59:03.726Z,16.80
2018-10-06T12:00:03.789Z,11.60
2018-10-06T12:01:03.882Z,28.30
2018-10-06T12:02:03.667Z,28.60
2018-10-06T12:03:03.655Z,77.10
2018-10-06T12:04:03.668Z,74.40
2018-10-06T12:05:03.636Z,96.50
2018-10-06T12:06:03.628Z,37.80
2018-10-06T12:07:03.617Z,27.60
2018-10-06T12:08:03.602Z,19.10
2018-10-06T12:09:03.614Z,52.10
2018-10-06T12:10:03.580Z,42.00
2018-10-06T12:11:03.571Z,36.10
2018-10-06T12:12:03.558Z,74.00
2018-10-06T12:13:03.548Z,38.10
2018-10-06T12:14:04.099Z,33.30
2018-10-06T12:15:03.528Z,48.00
2018-10-06T12:16:03.516Z,27.90
2018-10-06T12:17:03.507Z,6.60
2018-10-06T12:18:03.493Z,9.10
2018-10-06T12:19:03.507Z,4.80
2018-10-06T12:20:03.474Z,5.50
2018-10-06T12:21:03.462Z,10.20
2018-10-06T12:22:03.450Z,6.00
2018-10-06T12:23:03.445Z,5.50
2018-10-06T12:24:03.453Z,10.90
2018-10-06T12:25:03.419Z,6.20
2018-10-06T12:26:03.430Z,9.60
2018-10-06T12:27:03.397Z,5.90
2018-10-06T12:28:03.387Z,4.40
2018-10-06T12:29:03.441Z,5.00
2018-10-06T12:30:03.366Z,4.90
2018-10-06T12:31:03.355Z,10.50
2018-10-06T12:32:03.348Z,5.60
2018-10-06T12:33:03.333Z,4.70
2018-10-06T12:34:03.348Z,4.90
2018-10-06T12:35:03.349Z,6.40
2018-10-06T12:36:03.302Z,4.40
2018-10-06T12:37:03.291Z,4.70
2018-10-06T12:38:03.279Z,5.10
2018-10-06T12:39:03.293Z,4.20
2018-10-06T12:40:03.263Z,4.20
2018-10-06T12:41:03.285Z,9.60
2018-10-06T12:42:03.297Z,7.80
2018-10-06T12:43:03.326Z,31.90
2018-10-06T12:44:03.330Z,15.70
2018-10-06T12:45:03.222Z,5.80
2018-10-06T12:46:03.194Z,14.60
2018-10-06T12:47:03.191Z,8.70
2018-10-06T12:48:03.172Z,5.90
2018-10-06T12:49:03.184Z,4.60
2018-10-06T12:50:03.151Z,4.30
2018-10-06T12:51:03.140Z,4.20
2018-10-06T12:52:03.133Z,11.30
2018-10-06T12:53:03.123Z,13.00
2018-10-06T12:54:03.135Z,12.60
2018-10-06T12:55:03.100Z,7.60
2018-10-06T12:56:03.090Z,6.20
2018-10-06T12:57:03.081Z,7.60
2018-10-06T12:58:03.070Z,55.10
2018-10-06T12:59:03.080Z,5.60
2018-10-06T13:00:03.079Z,22.60
2018-10-06T13:01:03.038Z,25.00
2018-10-06T13:02:03.025Z,4.70
2018-10-06T13:03:03.018Z,4.60
2018-10-06T13:04:03.007Z,9.30
2018-10-06T13:05:03.020Z,8.20
2018-10-06T13:06:03.004Z,8.60
2018-10-06T13:07:02.973Z,10.00
2018-10-06T13:08:02.962Z,6.70
2018-10-06T13:09:02.953Z,10.90
2018-10-06T13:10:02.971Z,14.80
2018-10-06T13:11:02.930Z,16.30
2018-10-06T13:12:03.061Z,27.10
2018-10-06T13:13:02.910Z,20.30
2018-10-06T13:14:02.902Z,109.70
2018-10-06T13:15:02.911Z,48.10
2018-10-06T13:16:02.876Z,117.00